createdAt,value
2019-05-15T00:00:49.625Z,101596.86
2019-05-15T00:05:51.740Z,101590.07
2019-05-15T00:10:54.106Z,101585.31
2019-05-15T00:15:58.871Z,101582.97
2019-05-15T00:21:00.338Z,101579.81
2019-05-15T00:26:02.719Z,101580.66
2019-05-15T00:31:05.807Z,101585.27
2019-05-15T00:36:08.638Z,101578.61
2019-05-15T00:41:11.014Z,101576.92
2019-05-15T00:46:13.043Z,101582.13
2019-05-15T00:51:15.160Z,101578.12
2019-05-15T00:56:19.275Z,101577.80
2019-05-15T01:01:21.369Z,101576.67
2019-05-15T01:06:23.452Z,101578.69
2019-05-15T01:11:25.589Z,101574.64
2019-05-15T01:16:28.250Z,101568.86
2019-05-15T01:21:30.382Z,101560.50
2019-05-15T01:26:32.480Z,101564.92
2019-05-15T01:31:34.543Z,101550.95
2019-05-15T01:36:38.219Z,101551.45
2019-05-15T01:41:40.664Z,101552.42
2019-05-15T01:46:42.963Z,101545.84
2019-05-15T01:51:44.968Z,101541.20
2019-05-15T01:56:49.241Z,101536.45
2019-05-15T02:01:51.369Z,101540.59
2019-05-15T02:06:53.463Z,101538.69
2019-05-15T02:11:58.108Z,101527.36
2019-05-15T02:17:00.369Z,101529.16
2019-05-15T02:22:02.353Z,101529.27
2019-05-15T02:27:04.546Z,101533.44
2019-05-15T02:32:09.954Z,101528.02
2019-05-15T02:37:10.753Z,101531.07
2019-05-15T02:42:14.510Z,101527.94
2019-05-15T02:47:19.918Z,101522.81
2019-05-15T02:52:21.641Z,101520.58
2019-05-15T02:57:23.729Z,101526.92
2019-05-15T03:02:28.470Z,101525.89
2019-05-15T03:07:29.944Z,101526.30
2019-05-15T03:12:32.215Z,101530.91
2019-05-15T03:17:35.324Z,101527.20
2019-05-15T03:22:39.986Z,101533.62
2019-05-15T03:27:41.719Z,101540.05
2019-05-15T03:32:53.879Z,101532.16
2019-05-15T03:37:49.241Z,101524.08
2019-05-15T03:42:52.525Z,101522.35
2019-05-15T03:47:54.650Z,101527.42
2019-05-15T03:52:58.901Z,101522.52
2019-05-15T03:58:00.854Z,101534.73
2019-05-15T04:03:03.949Z,101534.52
2019-05-15T04:08:06.238Z,101530.74
2019-05-15T04:13:09.680Z,101534.31
2019-05-15T04:18:11.955Z,101537.44
2019-05-15T04:23:20.522Z,101542.95
2019-05-15T04:28:24.241Z,101539.11
2019-05-15T04:33:29.361Z,101538.86
2019-05-15T04:38:30.294Z,101534.23
2019-05-15T04:43:41.542Z,101542.91
2019-05-15T04:48:39.590Z,101545.02
2019-05-15T04:53:40.732Z,101543.56
2019-05-15T04:58:43.227Z,101543.66
2019-05-15T05:03:45.284Z,101548.52
2019-05-15T05:08:49.065Z,101556.09
2019-05-15T05:13:51.513Z,101549.21
2019-05-15T05:18:53.501Z,101539.91
2019-05-15T05:23:55.692Z,101541.69
2019-05-15T05:29:01.352Z,101546.39
2019-05-15T05:34:02.020Z,101550.11
2019-05-15T05:39:05.476Z,101549.02
2019-05-15T05:44:08.188Z,101549.91
2019-05-15T05:49:10.529Z,101541.69
2019-05-15T05:54:12.942Z,101546.52
2019-05-15T05:59:15.127Z,101551.69
2019-05-15T06:04:19.039Z,101553.66
2019-05-15T06:09:21.232Z,101553.94
2019-05-15T06:14:23.397Z,101549.66
2019-05-15T06:19:27.650Z,101543.79
2019-05-15T06:24:30.654Z,101540.00
2019-05-15T06:29:32.970Z,101539.61
2019-05-15T06:34:35.062Z,101534.18
2019-05-15T06:39:39.118Z,101533.98
2019-05-15T06:44:41.387Z,101535.92
2019-05-15T06:49:43.585Z,101535.72
2019-05-15T06:54:45.657Z,101536.27
2019-05-15T06:59:48.884Z,101525.48
2019-05-15T07:04:50.873Z,101525.52
2019-05-15T07:09:52.908Z,101525.79
2019-05-15T07:14:55.490Z,101535.31
2019-05-15T07:19:59.187Z,101523.09
2019-05-15T07:25:01.486Z,101508.90
2019-05-15T07:30:04.784Z,101510.39
2019-05-15T07:35:08.424Z,101515.31
2019-05-15T07:40:13.445Z,101516.05
2019-05-15T07:45:19.581Z,101516.07
2019-05-15T07:50:20.719Z,101518.03
2019-05-15T07:55:22.820Z,101513.16
2019-05-15T08:00:25.468Z,101515.45
2019-05-15T08:05:28.531Z,101510.34
2019-05-15T08:10:30.796Z,101501.68
2019-05-15T08:15:32.985Z,101512.99
2019-05-15T08:20:34.997Z,101500.59
2019-05-15T08:25:38.914Z,101501.92
2019-05-15T08:30:41.089Z,101505.70
2019-05-15T08:35:47.470Z,101495.43
2019-05-15T08:40:48.975Z,101479.68
2019-05-15T08:45:52.492Z,101466.80
2019-05-15T08:50:57.864Z,101470.78
2019-05-15T08:56:00.477Z,101464.41
2019-05-15T09:01:02.690Z,101455.00
2019-05-15T09:06:04.912Z,101451.80
2019-05-15T09:11:08.891Z,101436.16
2019-05-15T09:16:11.588Z,101445.20
2019-05-15T09:21:13.788Z,101433.73
2019-05-15T09:26:19.248Z,101433.02
2019-05-15T09:31:20.082Z,101435.58
2019-05-15T09:36:22.192Z,101429.33
2019-05-15T09:41:24.484Z,101423.33
2019-05-15T09:46:28.992Z,101422.38
2019-05-15T09:51:30.638Z,101408.88
2019-05-15T09:56:34.322Z,101422.84
2019-05-15T10:01:39.248Z,101403.64
2019-05-15T10:06:40.568Z,101397.82
2019-05-15T10:11:42.710Z,101396.41
2019-05-15T10:16:45.482Z,101381.27
2019-05-15T10:26:49.237Z,101373.89
2019-05-15T10:31:51.603Z,101382.44
2019-05-15T10:36:53.603Z,101371.73
2019-05-15T10:41:55.850Z,101360.58
2019-05-15T10:46:58.578Z,101358.31
2019-05-15T10:52:00.710Z,101348.88
2019-05-15T10:57:05.213Z,101343.02
2019-05-15T11:02:08.587Z,101332.92
2019-05-15T11:07:11.013Z,101332.92
2019-05-15T11:12:13.134Z,101320.42
2019-05-15T11:17:15.521Z,101320.42
2019-05-15T11:22:18.806Z,101311.60
2019-05-15T11:27:21.307Z,101318.17
2019-05-15T11:32:23.513Z,101311.00
2019-05-15T11:37:28.090Z,101312.59
2019-05-15T11:42:30.045Z,101310.53
2019-05-15T11:47:32.346Z,101311.03
2019-05-15T11:52:36.592Z,101297.97
2019-05-15T11:57:46.015Z,101302.89
2019-05-15T12:02:42.634Z,101298.67
2019-05-15T12:07:47.791Z,101284.97
2019-05-15T12:12:49.804Z,101283.95
2019-05-15T12:17:52.004Z,101283.95
2019-05-15T12:22:54.055Z,101271.32
2019-05-15T12:27:56.179Z,101270.16
2019-05-15T12:33:00.179Z,101258.57
2019-05-15T12:38:02.320Z,101267.67
2019-05-15T13:03:20.572Z,101244.12
2019-05-15T13:08:22.582Z,101241.73
2019-05-15T13:13:24.694Z,101234.05
2019-05-15T13:18:28.634Z,101234.70
2019-05-15T13:23:30.799Z,101234.91
2019-05-15T13:28:32.816Z,101217.94
2019-05-15T13:33:38.429Z,101212.42
2019-05-15T13:38:40.092Z,101210.59
2019-05-15T13:43:43.027Z,101209.07
2019-05-15T13:48:45.277Z,101204.08
2019-05-15T13:53:49.077Z,101208.64
2019-05-15T13:58:51.366Z,101196.52
2019-05-15T14:03:53.664Z,101185.39
2019-05-15T14:15:00.686Z,101188.68
2019-05-15T14:20:03.488Z,101178.28
2019-05-15T14:25:08.587Z,101180.29
2019-05-15T14:30:10.874Z,101180.65
2019-05-15T14:35:13.074Z,101167.92
2019-05-15T14:40:17.694Z,101169.23
2019-05-15T14:45:19.812Z,101176.50
2019-05-15T14:50:21.880Z,101162.52
2019-05-15T14:55:25.302Z,101156.49
2019-05-15T15:00:30.154Z,101142.52
2019-05-15T15:05:31.534Z,101148.91
2019-05-15T15:10:33.509Z,101140.14
2019-05-15T15:15:37.533Z,101145.37
2019-05-15T15:20:40.099Z,101151.80
2019-05-15T15:25:42.123Z,101144.20
2019-05-15T15:30:44.315Z,101133.90
2019-05-15T16:15:49.770Z,101100.69
2019-05-15T16:20:51.799Z,101102.11
2019-05-15T16:29:51.649Z,101100.31
2019-05-15T16:34:53.655Z,101100.44
2019-05-15T16:39:57.799Z,101095.38
2019-05-15T16:47:30.392Z,101089.18
2019-05-15T16:52:33.618Z,101091.48
2019-05-15T16:57:38.612Z,101093.00
2019-05-15T17:02:41.089Z,101086.93
2019-05-15T17:07:43.502Z,101086.06
2019-05-15T17:12:45.702Z,101083.87
2019-05-15T17:17:48.735Z,101085.50
2019-05-15T17:22:51.037Z,101090.34
2019-05-15T17:27:53.135Z,101094.56
2019-05-15T17:32:55.155Z,101091.86
2019-05-15T17:37:58.149Z,101090.02
2019-05-15T17:43:02.634Z,101093.72
2019-05-15T17:48:04.584Z,101088.80
2019-05-15T17:53:06.760Z,101084.23
2019-05-15T17:58:09.358Z,101092.98
2019-05-15T20:15:09.114Z,101056.28
2019-05-15T20:20:13.528Z,101059.64
2019-05-15T20:25:15.667Z,101060.09
2019-05-15T20:30:18.176Z,101063.39
2019-05-15T20:35:20.222Z,101059.73
2019-05-15T20:40:22.601Z,101056.59
2019-05-15T20:45:24.786Z,101051.12
2019-05-15T20:50:28.202Z,101050.37
2019-05-15T20:55:31.873Z,101047.45
2019-05-15T21:00:34.111Z,101039.66
2019-05-15T21:05:38.142Z,101033.97
2019-05-15T21:10:43.024Z,101031.95
2019-05-15T21:15:44.011Z,101028.42
2019-05-15T21:20:48.200Z,101022.38
2019-05-15T21:25:49.989Z,101015.70
2019-05-15T21:30:52.196Z,101013.37
2019-05-15T21:35:54.135Z,101007.80
2019-05-15T21:40:58.450Z,100998.70
2019-05-15T21:46:00.155Z,100993.32
2019-05-15T21:51:02.261Z,100991.84
2019-05-15T21:56:04.405Z,100983.52
2019-05-15T22:01:08.140Z,100990.94
2019-05-15T22:06:12.194Z,100979.01
2019-05-15T22:11:14.229Z,100977.97
2019-05-15T22:16:18.593Z,100974.67
2019-05-15T22:21:20.758Z,100963.92
2019-05-15T22:26:22.676Z,100959.56
2019-05-15T22:31:24.909Z,100946.19
2019-05-15T22:36:28.084Z,100949.64
2019-05-15T22:41:30.383Z,100941.55
2019-05-15T22:46:32.399Z,100933.80
2019-05-15T22:51:38.071Z,100933.25
2019-05-15T22:56:39.316Z,100922.31
2019-05-15T23:01:41.369Z,100921.23
2019-05-15T23:06:43.462Z,100910.79
2019-05-15T23:11:48.439Z,100909.23
2019-05-15T23:16:50.675Z,100904.84
2019-05-15T23:21:52.628Z,100896.91
2019-05-15T23:26:54.636Z,100893.73
2019-05-15T23:31:58.403Z,100894.53
2019-05-15T23:37:00.423Z,100883.12
2019-05-15T23:42:02.452Z,100881.06
2019-05-15T23:47:04.461Z,100882.62
2019-05-15T23:52:08.958Z,100877.75
2019-05-15T23:57:11.053Z,100872.17
